Time;durP1;ratioP1;P1;durP2;ratioP2;P2;SDS_P1;SDS_P2;PMS_P1;PMS_P2;Temp;Humidity;BMP_temperature;BMP_pressure;BME280_temperature;BME280_humidity;BME280_pressure;Samples;Min_cycle;Max_cycle;Signal;HPM_P1;HPM_P2
2023/10/16 00:01:54;;;;;;;5.9;2.6;;;;;;;5.55;83.1;;;;;
2023/10/16 00:12:52;;;;;;;6.4;2.5;;;;;;;5.43;83.09;;;;;
2023/10/16 00:22:52;;;;;;;6.4;2.5;;;;;;;5.35;83.42;;;;;
2023/10/16 00:33:53;;;;;;;6.4;2.5;;;;;;;5.3;84.15;;;;;
2023/10/16 00:43:52;;;;;;;6.4;2.5;;;;;;;5.24;83.92;;;;;
2023/10/16 00:53:52;;;;;;;6.4;2.5;;;;;;;5.08;84.53;;;;;
2023/10/16 01:04:52;;;;;;;6.4;2.5;;;;;;;4.94;84.6;;;;;
2023/10/16 01:15:53;;;;;;;8.3;3.3;;;;;;;5.01;84.96;;;;;
2023/10/16 01:26:54;;;;;;;8.3;3.3;;;;;;;5.1;84.22;;;;;
2023/10/16 01:37:53;;;;;;;8.3;3.3;;;;;;;5.23;83.41;;;;;
2023/10/16 01:47:52;;;;;;;4.5;1.9;;;;;;;5.47;82.72;;;;;
2023/10/16 01:58:52;;;;;;;4.5;1.9;;;;;;;5.82;80.79;;;;;
2023/10/16 02:09:52;;;;;;;2.7;1.4;;;;;;;6;79.66;;;;;
2023/10/16 02:20:52;;;;;;;2.7;1.4;;;;;;;6.19;77.98;;;;;
2023/10/16 02:30:52;;;;;;;2.7;1.4;;;;;;;6.32;77.34;;;;;
2023/10/16 02:41:55;;;;;;;3.7;1.9;;;;;;;6.41;77.14;;;;;
2023/10/16 02:51:52;;;;;;;3.7;1.9;;;;;;;6.49;77.22;;;;;
2023/10/16 03:01:53;;;;;;;3.7;1.9;;;;;;;6.52;76.22;;;;;
2023/10/16 03:12:52;;;;;;;3.3;1.5;;;;;;;6.58;75.82;;;;;
2023/10/16 03:22:53;;;;;;;3.3;1.5;;;;;;;6.66;74.89;;;;;
2023/10/16 03:33:53;;;;;;;3.3;1.5;;;;;;;6.73;74.86;;;;;
2023/10/16 03:44:52;;;;;;;2.7;1.8;;;;;;;6.8;74.35;;;;;
2023/10/16 03:55:53;;;;;;;2.7;1.8;;;;;;;6.86;74.45;;;;;
2023/10/16 04:05:53;;;;;;;2.7;1.8;;;;;;;6.87;74.51;;;;;
2023/10/16 04:16:08;;;;;;;2.3;1.4;;;;;;;6.92;73.71;;;;;
2023/10/16 04:26:57;;;;;;;2.3;1.4;;;;;;;6.97;73.59;;;;;
2023/10/16 04:36:53;;;;;;;2.3;1.4;;;;;;;6.98;73.83;;;;;
2023/10/16 04:48:06;;;;;;;6.4;2;;;;;;;6.94;73.34;;;;;
2023/10/16 04:58:59;;;;;;;6.4;2;;;;;;;6.97;73.63;;;;;
2023/10/16 05:10:12;;;;;;;4.4;2;;;;;;;6.92;73.16;;;;;
2023/10/16 05:19:53;;;;;;;4.4;2;;;;;;;6.98;73.77;;;;;
2023/10/16 06:21:54;;;;;;;4.3;2.9;;;;;;;7.18;73.6;;;;;
2023/10/16 06:32:53;;;;;;;4.3;2.9;;;;;;;7.09;73.94;;;;;
2023/10/16 06:43:09;;;;;;;6.2;2.1;;;;;;;7.17;73.77;;;;;
2023/10/16 06:53:54;;;;;;;6.2;2.1;;;;;;;7.12;74.42;;;;;
2023/10/16 07:04:53;;;;;;;6.2;2.1;;;;;;;7.18;74.65;;;;;
2023/10/16 07:15:53;;;;;;;4.7;2.1;;;;;;;7.13;75.16;;;;;
2023/10/16 07:25:54;;;;;;;4.7;2.1;;;;;;;7.14;74.61;;;;;
2023/10/16 07:36:55;;;;;;;4.7;2.1;;;;;;;7.19;73.5;;;;;
2023/10/16 07:47:53;;;;;;;4.5;1.8;;;;;;;7.2;74.26;;;;;
2023/10/16 07:58:54;;;;;;;4.5;1.8;;;;;;;7.23;74.42;;;;;
2023/10/16 08:10:34;;;;;;;5.3;2.5;;;;;;;7.24;74.19;;;;;
2023/10/16 08:19:53;;;;;;;5.3;2.5;;;;;;;7.45;73.58;;;;;
2023/10/16 08:30:54;;;;;;;5.3;2.5;;;;;;;7.77;72.51;;;;;
2023/10/16 08:40:57;;;;;;;8.5;3.2;;;;;;;7.91;70.85;;;;;
2023/10/16 08:47:15;;;;;;;8.5;3.2;;;;;;;8.02;70.53;;;;;
2023/10/16 08:56:54;;;;;;;8.5;3.2;;;;;;;8.09;70.74;;;;;
2023/10/16 09:06:54;;;;;;;8.5;3.2;;;;;;;8.26;69.95;;;;;
2023/10/16 09:16:55;;;;;;;6.9;2.1;;;;;;;8.21;69.72;;;;;
2023/10/16 09:26:54;;;;;;;6.9;2.1;;;;;;;8;69.55;;;;;
2023/10/16 09:37:57;;;;;;;6.9;2.1;;;;;;;8.05;70.29;;;;;
2023/10/16 09:47:55;;;;;;;5.2;1.9;;;;;;;7.85;70.24;;;;;
2023/10/16 09:57:54;;;;;;;5.2;1.9;;;;;;;7.97;69.7;;;;;
2023/10/16 10:07:59;;;;;;;5.2;1.9;;;;;;;8.05;70.1;;;;;
2023/10/16 10:19:01;;;;;;;5.4;2.8;;;;;;;7.92;69.83;;;;;
2023/10/16 10:28:55;;;;;;;5.4;2.8;;;;;;;8.08;68.83;;;;;
2023/10/16 10:39:54;;;;;;;7.4;3.3;;;;;;;8.37;68.8;;;;;
2023/10/16 10:49:59;;;;;;;7.4;3.3;;;;;;;8.31;68.12;;;;;
2023/10/16 11:01:15;;;;;;;;;;;;;;;;;;;;;
2023/10/16 11:10:56;;;;;;;7.1;3.7;;;;;;;8.85;67.97;;;;;
2023/10/16 11:20:54;;;;;;;7.1;3.7;;;;;;;9.4;66.99;;;;;
2023/10/16 11:31:54;;;;;;;7.1;3.7;;;;;;;10.05;63.98;;;;;
2023/10/16 11:41:54;;;;;;;6;2.5;;;;;;;10.07;64.44;;;;;
2023/10/16 11:52:54;;;;;;;6;2.5;;;;;;;10.26;67.07;;;;;
2023/10/16 12:02:54;;;;;;;6;2.5;;;;;;;10.26;62.87;;;;;
2023/10/16 12:13:55;;;;;;;8.2;2.9;;;;;;;10.32;62.54;;;;;
2023/10/16 12:24:56;;;;;;;8.2;2.9;;;;;;;10.26;63.45;;;;;
2023/10/16 12:34:54;;;;;;;8.2;2.9;;;;;;;10.18;62.27;;;;;
2023/10/16 12:44:54;;;;;;;5.2;2.1;;;;;;;10.07;61.08;;;;;
2023/10/16 12:55:55;;;;;;;5.2;2.1;;;;;;;9.98;60.36;;;;;
2023/10/16 13:06:54;;;;;;;5.2;2.1;;;;;;;10.2;60.92;;;;;
2023/10/16 13:16:54;;;;;;;5.6;2.6;;;;;;;10.22;60.58;;;;;
2023/10/16 13:27:55;;;;;;;5.6;2.6;;;;;;;10.21;60.21;;;;;
2023/10/16 13:37:58;;;;;;;5.6;2.6;;;;;;;9.76;60.28;;;;;
2023/10/16 13:48:54;;;;;;;6.6;2.5;;;;;;;10.26;58.54;;;;;
2023/10/16 13:59:54;;;;;;;6.6;2.5;;;;;;;10.38;58.59;;;;;
2023/10/16 14:09:56;;;;;;;10.9;2.4;;;;;;;10.37;58.45;;;;;
2023/10/16 14:20:56;;;;;;;10.9;2.4;;;;;;;9.76;60.48;;;;;
2023/10/16 14:31:55;;;;;;;10.9;2.4;;;;;;;9.16;62.06;;;;;
2023/10/16 14:41:55;;;;;;;8.1;2.8;;;;;;;9.31;63.71;;;;;
2023/10/16 14:52:55;;;;;;;8.1;2.8;;;;;;;8.98;64.25;;;;;
2023/10/16 15:03:54;;;;;;;8.1;2.8;;;;;;;8.69;64.86;;;;;
2023/10/16 15:14:54;;;;;;;7.2;2.8;;;;;;;8.51;65.83;;;;;
2023/10/16 15:24:54;;;;;;;7.2;2.8;;;;;;;8.25;67.16;;;;;
2023/10/16 15:34:56;;;;;;;7.2;2.8;;;;;;;8.14;67.42;;;;;
2023/10/16 15:45:54;;;;;;;6.7;3.6;;;;;;;7.86;68.43;;;;;
2023/10/16 15:56:54;;;;;;;6.7;3.6;;;;;;;7.76;69.76;;;;;
2023/10/16 16:06:54;;;;;;;6.7;3.6;;;;;;;7.74;69.74;;;;;
2023/10/16 16:17:54;;;;;;;8;4;;;;;;;7.74;69.77;;;;;
2023/10/16 16:28:55;;;;;;;8;4;;;;;;;7.69;69.9;;;;;
2023/10/16 16:39:54;;;;;;;10.3;4.3;;;;;;;7.51;70.26;;;;;
2023/10/16 16:49:54;;;;;;;10.3;4.3;;;;;;;7.45;71.08;;;;;
2023/10/16 16:59:54;;;;;;;10.3;4.3;;;;;;;7.46;71.67;;;;;
2023/10/16 17:10:55;;;;;;;8.1;4.5;;;;;;;7.52;71.96;;;;;
2023/10/16 17:21:54;;;;;;;8.1;4.5;;;;;;;7.54;72.27;;;;;
2023/10/16 17:31:55;;;;;;;8.1;4.5;;;;;;;7.55;73.76;;;;;
2023/10/16 17:41:54;;;;;;;11.2;5.3;;;;;;;7.47;74.67;;;;;
2023/10/16 17:51:54;;;;;;;11.2;5.3;;;;;;;7.48;74.68;;;;;
2023/10/16 18:02:56;;;;;;;11.2;5.3;;;;;;;7.49;74.45;;;;;
2023/10/16 18:13:57;;;;;;;12;7.1;;;;;;;7.54;74.72;;;;;
2023/10/16 18:23:54;;;;;;;12;7.1;;;;;;;7.56;74.78;;;;;
2023/10/16 18:33:55;;;;;;;12;7.1;;;;;;;7.54;74.85;;;;;
2023/10/16 18:43:55;;;;;;;13.8;8.1;;;;;;;7.55;76.7;;;;;
2023/10/16 18:53:54;;;;;;;13.8;8.1;;;;;;;7.47;75.83;;;;;
2023/10/16 19:04:55;;;;;;;13.8;8.1;;;;;;;7.49;75.38;;;;;
2023/10/16 19:14:55;;;;;;;17.5;8.5;;;;;;;7.42;75.65;;;;;
2023/10/16 19:25:55;;;;;;;17.5;8.5;;;;;;;7.32;76.34;;;;;
2023/10/16 19:35:56;;;;;;;17.5;8.5;;;;;;;7.33;76.08;;;;;
2023/10/16 19:46:54;;;;;;;15.7;7.3;;;;;;;7.3;75.71;;;;;
2023/10/16 19:56:55;;;;;;;15.7;7.3;;;;;;;7.34;75.94;;;;;
2023/10/16 20:06:55;;;;;;;15.7;7.3;;;;;;;7.27;76.18;;;;;
2023/10/16 20:16:55;;;;;;;15.8;8;;;;;;;7.35;75.57;;;;;
2023/10/16 20:26:57;;;;;;;15.8;8;;;;;;;7.4;75.82;;;;;
2023/10/16 20:37:56;;;;;;;14.7;7.2;;;;;;;7.28;76.29;;;;;
2023/10/16 20:48:55;;;;;;;14.7;7.2;;;;;;;7.3;76.41;;;;;
2023/10/16 20:58:55;;;;;;;14.7;7.2;;;;;;;7.33;76.48;;;;;
2023/10/16 21:09:55;;;;;;;10.6;7;;;;;;;7.36;76.76;;;;;
2023/10/16 21:19:55;;;;;;;10.6;7;;;;;;;7.33;77.18;;;;;
2023/10/16 21:29:55;;;;;;;10.6;7;;;;;;;7.35;76.92;;;;;
2023/10/16 21:40:55;;;;;;;14.3;6.7;;;;;;;7.29;77.79;;;;;
2023/10/16 21:50:55;;;;;;;14.3;6.7;;;;;;;7.23;78.08;;;;;
2023/10/16 22:01:55;;;;;;;14.3;6.7;;;;;;;7.22;78.11;;;;;
2023/10/16 22:11:55;;;;;;;15.5;7.7;;;;;;;7.27;77.74;;;;;
2023/10/16 22:22:56;;;;;;;15.5;7.7;;;;;;;7.27;78.44;;;;;
2023/10/16 22:32:55;;;;;;;15.5;7.7;;;;;;;7.25;78.5;;;;;
2023/10/16 22:43:55;;;;;;;11.7;6.9;;;;;;;7.23;78.59;;;;;
2023/10/16 22:53:55;;;;;;;11.7;6.9;;;;;;;7.27;78.46;;;;;
2023/10/16 23:03:55;;;;;;;11.7;6.9;;;;;;;7.15;78.85;;;;;
2023/10/16 23:13:55;;;;;;;12.5;5.8;;;;;;;7.19;78.67;;;;;
2023/10/16 23:23:55;;;;;;;12.5;5.8;;;;;;;7.01;79.5;;;;;
2023/10/16 23:34:55;;;;;;;12.5;5.8;;;;;;;6.89;80.04;;;;;
2023/10/16 23:44:57;;;;;;;13.9;7.1;;;;;;;6.84;80.77;;;;;
2023/10/16 23:55:56;;;;;;;13.9;7.1;;;;;;;6.67;81.74;;;;;
